»·PEaware :: ASA526 KSJC-KPHX

ASA526 :: KSJC-KPHX

FLIGHT INFORMATION

Flight Status: Arrived
Operator:
Alaska Airlines
More flights by this operator :: More flights under this callsign
Pilot: Pratham R. (19019)
Aircraft: AIRBUS A319
(A319)
More flights by this aircraft type
Origin: KSJC Mineta San Jose Intl
United States
Destination: KPHX Phoenix Sky Harbor Intl
United States
More flights between these airports :: More routes between these airports
Route: +TECKY3 LOSHN BOILE BLH HYDRR1
File this flight plan on PilotEdge
Remarks: RMK / SIMBRIEF
Altitude:
(Current/Filed)
37,000ft
Speed:
(Current/Filed)
454kts
Departed: 12-Aug-20 04:46 PM
Arrived: 12-Aug-20 06:18 PM
Distance/Time
Traveled:
539nm/1:32
Distance/Time
To Go:
Arrived

Flight Plot

Page will automatically refresh every two minutes.

Flight plan parsing failed; only flown route is shown


Map Options




Map Legend


Flown Route
Filed Route
Departure Airport
Arrival Airport
Navaid (VOR, NDB)
Fix

Horizontal Profiles

Position Reports

Time Latitude Longitude Heading Altitude Ground
Speed
12-Aug-20 16:16 37.363077 -121.923180 49 57ft 0kts
12-Aug-20 16:17 37.363077 -121.923180 49 57ft 0kts
12-Aug-20 16:18 37.363077 -121.923180 49 57ft 0kts
12-Aug-20 16:19 37.363077 -121.923180 49 57ft 0kts
12-Aug-20 16:20 37.363077 -121.923180 49 57ft 0kts
12-Aug-20 16:21 37.363077 -121.923180 49 57ft 0kts
12-Aug-20 16:22 37.363077 -121.923180 49 57ft 0kts
12-Aug-20 16:23 37.363077 -121.923180 49 57ft 0kts
12-Aug-20 16:24 37.363077 -121.923180 49 57ft 0kts
12-Aug-20 16:25 37.363077 -121.923180 49 57ft 0kts
12-Aug-20 16:26 37.363077 -121.923180 49 57ft 0kts
12-Aug-20 16:27 37.363077 -121.923180 49 57ft 0kts
12-Aug-20 16:28 37.363077 -121.923180 49 57ft 0kts
12-Aug-20 16:29 37.363077 -121.923180 49 57ft 0kts
12-Aug-20 16:30 37.363077 -121.923180 49 57ft 0kts
12-Aug-20 16:31 37.363077 -121.923180 49 57ft 0kts
12-Aug-20 16:32 37.363077 -121.923180 49 57ft 0kts
12-Aug-20 16:33 37.363077 -121.923180 49 57ft 0kts
12-Aug-20 16:34 37.363077 -121.923180 49 57ft 0kts
12-Aug-20 16:35 37.363077 -121.923180 49 57ft 0kts
12-Aug-20 16:36 37.363072 -121.923187 49 57ft 1kts
12-Aug-20 16:37 37.362710 -121.923774 79 58ft 2kts
12-Aug-20 16:38 37.362845 -121.924216 138 57ft 0kts
12-Aug-20 16:39 37.362845 -121.924215 138 57ft 0kts
12-Aug-20 16:40 37.362844 -121.924215 138 57ft 0kts
12-Aug-20 16:41 37.362366 -121.923684 138 58ft 6kts
12-Aug-20 16:42 37.361652 -121.922896 138 59ft 2kts
12-Aug-20 16:43 37.358495 -121.919461 139 63ft 17kts
12-Aug-20 16:44 37.354217 -121.914755 139 66ft 16kts
12-Aug-20 16:45 37.355656 -121.918978 318 65ft 87kts
12-Aug-20 16:46 37.386603 -121.952179 318 2511ft 167kts
12-Aug-20 16:47 37.434277 -121.959953 55 4745ft 242kts
12-Aug-20 16:48 37.408742 -121.891436 140 5046ft 244kts
12-Aug-20 16:49 37.355334 -121.823344 136 7153ft 293kts
12-Aug-20 16:50 37.297085 -121.751610 141 10626ft 298kts
12-Aug-20 16:51 37.228468 -121.674151 140 12070ft 369kts
12-Aug-20 16:52 37.146674 -121.581541 140 14228ft 408kts
12-Aug-20 16:53 37.060926 -121.483329 137 16735ft 426kts
12-Aug-20 16:54 36.979126 -121.372117 134 18894ft 440kts
12-Aug-20 16:55 36.897706 -121.260509 135 18958ft 438kts
12-Aug-20 16:56 36.817894 -121.152309 136 20582ft 450kts
12-Aug-20 16:57 36.731105 -121.034694 136 22243ft 467kts
12-Aug-20 16:58 36.640343 -120.915384 141 23810ft 478kts
12-Aug-20 16:59 36.542872 -120.801493 141 25612ft 480kts
12-Aug-20 17:00 36.446039 -120.688674 141 27464ft 477kts
12-Aug-20 17:01 36.349930 -120.577064 142 29215ft 471kts
12-Aug-20 17:02 36.254593 -120.466784 142 30753ft 467kts
12-Aug-20 17:03 36.160155 -120.357935 143 32116ft 463kts
12-Aug-20 17:04 36.067118 -120.250651 143 33266ft 459kts
12-Aug-20 17:05 35.973883 -120.143906 144 34264ft 456kts
12-Aug-20 17:06 35.898440 -120.057874 144 34982ft 454kts
12-Aug-20 17:07 35.809766 -119.946858 137 35801ft 458kts
12-Aug-20 17:08 35.726978 -119.829070 137 36526ft 455kts
12-Aug-20 17:09 35.643848 -119.711300 137 36921ft 456kts
12-Aug-20 17:10 35.560598 -119.593781 137 36924ft 456kts
12-Aug-20 17:11 35.477309 -119.476620 137 36924ft 455kts
12-Aug-20 17:12 35.394006 -119.359843 137 36924ft 456kts
12-Aug-20 17:13 35.310425 -119.242583 138 36924ft 455kts
12-Aug-20 17:14 35.229714 -119.130077 138 36917ft 456kts
12-Aug-20 17:15 35.147026 -119.015302 138 36915ft 457kts
12-Aug-20 17:16 35.062732 -118.898701 138 36957ft 460kts
12-Aug-20 17:17 34.978029 -118.781959 138 37092ft 458kts
12-Aug-20 17:18 34.894758 -118.667580 137 37163ft 451kts
12-Aug-20 17:19 34.811402 -118.553970 137 37153ft 449kts
12-Aug-20 17:20 34.728370 -118.440691 137 37076ft 449kts
12-Aug-20 17:21 34.646778 -118.329587 137 37026ft 449kts
12-Aug-20 17:22 34.563710 -118.216460 138 37019ft 449kts
12-Aug-20 17:23 34.480451 -118.103532 136 37019ft 450kts
12-Aug-20 17:24 34.413144 -117.973497 119 37019ft 464kts
12-Aug-20 17:25 34.373580 -117.823893 111 36997ft 469kts
12-Aug-20 17:26 34.337403 -117.671911 111 36994ft 469kts
12-Aug-20 17:27 34.300820 -117.520355 111 37005ft 469kts
12-Aug-20 17:28 34.264110 -117.369317 111 36992ft 469kts
12-Aug-20 17:29 34.227317 -117.218276 112 36970ft 469kts
12-Aug-20 17:30 34.190212 -117.067276 112 36962ft 469kts
12-Aug-20 17:31 34.152738 -116.915907 111 36961ft 472kts
12-Aug-20 17:32 34.114968 -116.763961 111 36947ft 473kts
12-Aug-20 17:33 34.076937 -116.611928 111 36893ft 473kts
12-Aug-20 17:34 34.038831 -116.460525 111 36863ft 473kts
12-Aug-20 17:36 34.000336 -116.308325 111 36863ft 473kts
12-Aug-20 17:37 33.961888 -116.156856 111 36870ft 473kts
12-Aug-20 17:38 33.923215 -116.005810 112 36835ft 473kts
12-Aug-20 17:39 33.883943 -115.854089 112 36801ft 473kts
12-Aug-20 17:40 33.844740 -115.704013 112 36795ft 473kts
12-Aug-20 17:41 33.804629 -115.550122 111 36795ft 473kts
12-Aug-20 17:42 33.765134 -115.399290 111 36795ft 473kts
12-Aug-20 17:43 33.729460 -115.263410 112 36804ft 473kts
12-Aug-20 17:44 33.687139 -115.103479 112 36821ft 474kts
12-Aug-20 17:45 33.647673 -114.955166 111 36828ft 476kts
12-Aug-20 17:46 33.607092 -114.803137 111 35917ft 483kts
12-Aug-20 17:47 33.573307 -114.646474 106 32875ft 488kts
12-Aug-20 17:48 33.542767 -114.488985 106 30060ft 483kts
12-Aug-20 17:49 33.512627 -114.335168 106 27772ft 469kts
12-Aug-20 17:50 33.483198 -114.185591 106 25508ft 453kts
12-Aug-20 17:51 33.454986 -114.043645 107 24824ft 428kts
12-Aug-20 17:52 33.427099 -113.905090 106 24819ft 428kts
12-Aug-20 17:52 33.403845 -113.789647 106 24818ft 428kts
12-Aug-20 17:54 33.371146 -113.628051 106 23927ft 425kts
12-Aug-20 17:54 33.348499 -113.516597 106 22508ft 407kts
12-Aug-20 17:55 33.323911 -113.384906 104 21703ft 407kts
12-Aug-20 17:57 33.297295 -113.229974 103 20391ft 400kts
12-Aug-20 17:57 33.281575 -113.121138 102 19032ft 404kts
12-Aug-20 17:58 33.275898 -112.989643 89 18012ft 381kts
12-Aug-20 17:59 33.279194 -112.866716 88 17027ft 367kts
12-Aug-20 18:00 33.286899 -112.750137 82 16046ft 342kts
12-Aug-20 18:01 33.297616 -112.637437 83 15060ft 337kts
12-Aug-20 18:02 33.307895 -112.527100 83 14082ft 331kts
12-Aug-20 18:03 33.317892 -112.418633 83 13104ft 325kts
12-Aug-20 18:04 33.327646 -112.311581 83 12129ft 319kts
12-Aug-20 18:05 33.337207 -112.206438 83 11161ft 315kts
12-Aug-20 18:06 33.346329 -112.105093 84 10359ft 288kts
12-Aug-20 18:07 33.346532 -112.014328 90 9165ft 262kts
12-Aug-20 18:08 33.345384 -111.928389 90 7484ft 254kts
12-Aug-20 18:09 33.344423 -111.844700 90 5818ft 249kts
12-Aug-20 18:10 33.352465 -111.765678 41 4311ft 237kts
12-Aug-20 18:11 33.408746 -111.761253 349 4041ft 201kts
12-Aug-20 18:12 33.459869 -111.781755 294 4038ft 195kts
12-Aug-20 18:13 33.434789 -111.832354 219 3589ft 193kts
12-Aug-20 18:14 33.428491 -111.886669 272 3030ft 157kts
12-Aug-20 18:15 33.428907 -111.937836 270 2199ft 149kts
12-Aug-20 18:16 33.428873 -111.985124 269 1441ft 142kts
12-Aug-20 18:17 33.428875 -112.022392 270 1118ft 33kts
12-Aug-20 18:18 33.430562 -112.025449 0 1117ft 7kts
12-Aug-20 18:19 33.432149 -112.023165 90 1118ft 14kts
12-Aug-20 18:20 33.432480 -112.018100 30 1121ft 10kts
12-Aug-20 18:21 33.433779 -112.015358 27 1124ft 6kts
12-Aug-20 18:22 33.433886 -112.014314 95 1124ft 0kts
12-Aug-20 18:23 33.433885 -112.014302 95 1124ft 0kts
12-Aug-20 18:24 33.433885 -112.014302 95 1124ft 0kts
12-Aug-20 18:25 33.433885 -112.014302 95 1124ft 0kts
12-Aug-20 18:26 33.433885 -112.014302 95 1124ft 0kts
12-Aug-20 18:27 33.433885 -112.014302 95 1124ft 0kts
12-Aug-20 18:28 33.433885 -112.014302 95 1124ft 0kts

Navigation Log

Ident Type
Flight plan parsing failed, navigation log unavailable